Terminal Aerodrome Forecast
Issued by NWS

Home | Current Version | Previous Version | Text Only | Print | Product List | Glossary On
Versions: 1 2 3 4 5 6 7 8 9 10 11 12 13 14 15
120
FTUS42 KMLB 191739
TAFTIX
TAF
KTIX 191739Z 1918/2018 11009KT P6SM SCT040
     FM200100 14004KT P6SM FEW040 SCT250
     FM201200 10006KT P6SM VCSH SCT025 BKN250=

USA.gov is the U.S. government's official web portal to all federal, state and local government web resources and services.